Time;durP1;ratioP1;P1;durP2;ratioP2;P2;SDS_P1;SDS_P2;PMS_P1;PMS_P2;Temp;Humidity;BMP_temperature;BMP_pressure;BME280_temperature;BME280_humidity;BME280_pressure;Samples;Min_cycle;Max_cycle;Signal;HPM_P1;HPM_P2
2022/08/29 00:04:31;;;;;;;5.07;2.40;;;;;;;15.54;47.25;100281.28;10343265;28;20081;-60
2022/08/29 00:09:33;;;;;;;6.72;2.42;;;;;;;15.50;47.57;100274.56;10339764;28;20494;-60
2022/08/29 00:14:35;;;;;;;5.38;2.17;;;;;;;15.47;47.76;100269.47;10342484;28;20240;-60
2022/08/29 00:19:37;;;;;;;7.72;2.30;;;;;;;15.28;48.08;100277.09;10340733;28;20046;-60
2022/08/29 00:24:39;;;;;;;6.05;2.40;;;;;;;15.14;48.15;100275.44;10340624;28;20137;-60
2022/08/29 00:29:41;;;;;;;5.20;2.30;;;;;;;15.13;48.29;100283.47;10340876;28;20490;-60
2022/08/29 00:34:44;;;;;;;8.25;2.30;;;;;;;14.99;48.27;100281.00;10344105;28;20050;-60
2022/08/29 00:39:45;;;;;;;6.32;2.28;;;;;;;14.93;48.87;100286.69;10339720;28;20042;-60
2022/08/29 00:44:47;;;;;;;5.15;2.13;;;;;;;14.90;48.88;100286.94;10341306;28;20063;-60
2022/08/29 00:49:54;;;;;;;5.55;2.28;;;;;;;14.78;48.92;100293.09;10342468;28;20046;-60
2022/08/29 00:54:56;;;;;;;6.60;2.22;;;;;;;14.63;49.45;100300.28;10342179;28;20054;-60
2022/08/29 00:59:58;;;;;;;6.30;2.30;;;;;;;14.66;49.72;100305.31;10343928;28;20449;-60
2022/08/29 01:05:00;;;;;;;5.22;2.20;;;;;;;14.63;49.76;100309.94;10342713;28;20050;-60
2022/08/29 01:10:04;;;;;;;6.82;2.33;;;;;;;14.51;49.77;100301.94;10343116;28;20046;-60
2022/08/29 01:15:14;;;;;;;5.85;2.28;;;;;;;14.41;50.08;100303.50;10341701;28;20054;-60
2022/08/29 01:20:19;;;;;;;5.85;2.25;;;;;;;14.55;49.48;100313.13;10353552;28;20054;-60
2022/08/29 01:25:24;;;;;;;4.80;2.28;;;;;;;14.58;49.40;100308.47;10355356;28;20428;-60
2022/08/29 01:30:26;;;;;;;5.00;2.20;;;;;;;14.49;49.99;100309.13;10356624;28;20148;-60
2022/08/29 01:35:28;;;;;;;7.30;2.40;;;;;;;14.46;50.05;100316.34;10354713;28;20289;-60
2022/08/29 01:40:29;;;;;;;4.88;2.30;;;;;;;14.40;49.89;100320.25;10355868;28;20050;-60
2022/08/29 01:45:31;;;;;;;5.70;2.20;;;;;;;14.02;50.41;100322.06;10354194;28;20053;-60
2022/08/29 01:50:33;;;;;;;6.30;2.10;;;;;;;13.96;50.91;100316.38;10356249;28;20061;-60
2022/08/29 01:55:36;;;;;;;6.95;2.10;;;;;;;14.05;50.97;100319.19;10356292;28;20071;-60
2022/08/29 02:00:39;;;;;;;5.53;2.33;;;;;;;14.06;50.99;100312.16;10354714;28;20073;-60
2022/08/29 02:05:40;;;;;;;6.15;2.42;;;;;;;13.86;51.02;100313.50;10362961;28;20733;-60
2022/08/29 02:10:42;;;;;;;4.60;2.10;;;;;;;13.70;51.86;100320.72;10362267;28;20054;-60
2022/08/29 02:15:44;;;;;;;7.20;2.30;;;;;;;13.77;51.52;100314.97;10362529;28;20050;-60
2022/08/29 02:20:46;;;;;;;5.85;2.35;;;;;;;13.74;51.78;100332.72;10363136;28;20137;-60
2022/08/29 02:25:48;;;;;;;6.05;2.40;;;;;;;13.58;51.98;100345.19;10362511;28;20168;-59
2022/08/29 02:30:51;;;;;;;7.50;2.60;;;;;;;13.40;52.54;100341.09;10358186;28;20050;-60
2022/08/29 02:35:58;;;;;;;5.13;2.30;;;;;;;13.07;53.35;100348.53;10356711;28;20066;-60
2022/08/29 02:41:01;;;;;;;4.57;2.00;;;;;;;13.25;53.20;100342.09;10356771;28;21122;-60
2022/08/29 02:46:03;;;;;;;7.68;2.45;;;;;;;13.39;52.73;100337.63;10354538;28;20079;-60
2022/08/29 02:51:05;;;;;;;5.78;2.20;;;;;;;13.19;53.40;100337.25;10355016;28;20042;-60
2022/08/29 02:56:07;;;;;;;6.68;2.42;;;;;;;13.24;53.50;100332.53;10356116;28;20061;-60
2022/08/29 03:01:15;;;;;;;6.25;2.30;;;;;;;13.29;53.30;100335.72;10354461;28;20445;-60
2022/08/29 03:06:18;;;;;;;8.60;2.80;;;;;;;13.24;53.23;100341.25;10348663;28;20042;-60
2022/08/29 03:11:20;;;;;;;6.15;2.22;;;;;;;13.21;52.87;100343.25;10347542;28;20057;-60
2022/08/29 03:16:21;;;;;;;5.00;2.30;;;;;;;13.03;53.40;100347.03;10348789;28;20053;-60
2022/08/29 03:21:25;;;;;;;6.25;2.40;;;;;;;13.05;53.70;100345.97;10347059;28;20819;-60
2022/08/29 03:26:27;;;;;;;7.38;2.50;;;;;;;13.02;53.54;100340.09;10346847;28;20078;-60
2022/08/29 03:31:28;;;;;;;6.50;2.30;;;;;;;12.93;54.06;100337.09;10347030;28;20054;-60
2022/08/29 03:36:31;;;;;;;6.03;2.20;;;;;;;13.07;53.77;100340.66;10346803;28;20046;-60
2022/08/29 03:41:33;;;;;;;8.60;2.60;;;;;;;13.06;53.76;100336.31;10345400;28;20050;-60
2022/08/29 03:46:36;;;;;;;5.07;2.15;;;;;;;13.03;53.78;100342.59;10346231;28;20053;-60
2022/08/29 03:51:39;;;;;;;6.80;2.50;;;;;;;12.97;53.54;100343.00;10346603;28;20061;-60
2022/08/29 03:56:40;;;;;;;6.85;2.47;;;;;;;12.33;54.71;100347.91;10346465;28;20054;-60
2022/08/29 04:01:42;;;;;;;7.80;2.80;;;;;;;12.07;55.24;100339.78;10346072;28;20046;-60
2022/08/29 04:06:44;;;;;;;7.82;2.50;;;;;;;12.17;55.73;100350.59;10345885;28;20494;-60
2022/08/29 04:11:46;;;;;;;8.00;2.55;;;;;;;12.19;55.46;100347.88;10344922;28;20071;-61
2022/08/29 04:16:51;;;;;;;4.28;2.10;;;;;;;11.94;56.26;100344.06;10345564;28;20056;-60
2022/08/29 04:21:53;;;;;;;6.97;2.45;;;;;;;12.13;56.22;100347.28;10344474;28;20057;-61
2022/08/29 04:26:55;;;;;;;5.30;2.67;;;;;;;12.10;55.87;100347.47;10345923;28;20049;-61
2022/08/29 04:31:56;;;;;;;16.25;2.80;;;;;;;11.86;56.25;100345.44;10345325;28;20541;-61
2022/08/29 04:36:58;;;;;;;12.43;2.30;;;;;;;11.93;56.25;100350.25;10345213;28;20049;-61
2022/08/29 04:42:00;;;;;;;6.13;2.40;;;;;;;12.21;55.94;100356.47;10343861;28;20045;-60
2022/08/29 04:47:02;;;;;;;4.35;2.28;;;;;;;12.39;55.41;100353.63;10344218;28;21056;-61
2022/08/29 04:52:04;;;;;;;6.47;2.35;;;;;;;12.44;55.25;100363.81;10344503;28;20142;-60
2022/08/29 04:57:06;;;;;;;4.85;2.47;;;;;;;12.55;55.11;100364.88;10345464;28;20049;-60
2022/08/29 05:02:08;;;;;;;6.22;2.30;;;;;;;12.68;54.89;100368.44;10342036;28;20050;-61
2022/08/29 05:07:09;;;;;;;7.85;2.38;;;;;;;12.78;54.46;100368.72;10344660;28;20052;-60
2022/08/29 05:12:11;;;;;;;5.97;2.80;;;;;;;12.86;54.51;100371.72;10342594;28;20058;-61
2022/08/29 05:17:13;;;;;;;5.95;2.38;;;;;;;12.95;54.17;100379.84;10326292;28;20056;-60
2022/08/29 05:22:16;;;;;;;6.35;2.45;;;;;;;13.10;53.86;100387.72;10342270;28;20414;-60
2022/08/29 05:27:20;;;;;;;5.38;2.55;;;;;;;13.18;53.62;100390.69;10341333;28;20054;-60
2022/08/29 05:32:21;;;;;;;7.07;2.55;;;;;;;13.07;53.75;100388.75;10344247;28;20077;-60
2022/08/29 05:37:23;;;;;;;5.82;2.42;;;;;;;13.27;53.45;100385.69;10343738;28;20052;-60
2022/08/29 05:42:26;;;;;;;6.45;2.30;;;;;;;13.49;53.02;100395.72;10343476;28;20406;-60
2022/08/29 05:47:28;;;;;;;9.35;3.00;;;;;;;13.62;52.58;100389.56;10344307;28;20168;-60
2022/08/29 05:52:29;;;;;;;6.22;2.53;;;;;;;13.79;52.33;100385.84;10343177;28;20064;-60
2022/08/29 05:57:31;;;;;;;7.97;2.55;;;;;;;14.03;51.85;100392.09;10339949;28;20053;-60
2022/08/29 06:02:33;;;;;;;6.35;2.40;;;;;;;14.19;51.74;100399.81;10344134;28;20049;-61
2022/08/29 06:07:35;;;;;;;7.20;2.40;;;;;;;14.18;51.69;100391.09;10350516;28;20054;-60
2022/08/29 06:12:36;;;;;;;6.80;2.45;;;;;;;14.18;51.68;100387.59;10347736;28;20060;-60
2022/08/29 06:17:38;;;;;;;6.82;2.55;;;;;;;14.41;51.17;100384.28;10351364;28;20235;-60
2022/08/29 06:22:40;;;;;;;6.40;2.40;;;;;;;14.63;50.98;100383.66;10348573;28;20768;-60
2022/08/29 06:27:42;;;;;;;7.43;2.50;;;;;;;14.95;50.42;100385.72;10348141;28;20613;-60
2022/08/29 06:32:43;;;;;;;6.68;2.80;;;;;;;15.35;49.95;100386.34;10348006;28;20064;-60
2022/08/29 06:37:45;;;;;;;9.90;3.00;;;;;;;15.80;48.33;100400.63;10349783;28;20321;-60
2022/08/29 06:42:47;;;;;;;8.95;3.10;;;;;;;16.07;47.37;100402.09;10348603;28;20050;-60
2022/08/29 06:47:48;;;;;;;7.28;2.88;;;;;;;16.13;47.05;100411.31;10347108;28;20423;-60
2022/08/29 06:52:50;;;;;;;8.48;3.40;;;;;;;16.39;46.85;100406.69;10348806;28;20059;-60
2022/08/29 06:57:55;;;;;;;12.73;3.30;;;;;;;16.43;46.34;100414.31;10348768;28;20062;-60
2022/08/29 07:02:57;;;;;;;13.38;4.47;;;;;;;16.83;45.82;100401.53;10348806;28;20050;-60
2022/08/29 07:07:59;;;;;;;9.57;3.80;;;;;;;17.03;44.90;100409.59;10346148;28;20049;-60
2022/08/29 07:13:01;;;;;;;10.52;3.53;;;;;;;17.17;44.61;100403.19;10346166;28;20053;-60
2022/08/29 07:18:02;;;;;;;10.38;3.42;;;;;;;17.51;44.17;100404.84;10346330;28;20050;-60
2022/08/29 07:23:05;;;;;;;10.07;3.53;;;;;;;17.53;43.91;100400.25;10348437;28;20120;-60
2022/08/29 07:28:09;;;;;;;9.57;3.50;;;;;;;17.73;43.59;100407.41;10329294;28;20554;-61
2022/08/29 07:33:11;;;;;;;8.55;3.53;;;;;;;17.98;43.27;100403.59;10348335;28;20136;-61
2022/08/29 07:38:13;;;;;;;10.57;3.60;;;;;;;18.52;42.55;100395.50;10347089;28;20399;-60
2022/08/29 07:43:15;;;;;;;12.18;3.97;;;;;;;18.67;41.98;100394.19;10346441;28;20046;-60
2022/08/29 07:48:22;;;;;;;12.80;4.10;;;;;;;19.16;40.89;100396.09;10343943;28;20050;-60
2022/08/29 07:53:24;;;;;;;10.40;4.07;;;;;;;19.46;40.19;100380.94;10346637;28;20054;-61
2022/08/29 07:58:26;;;;;;;11.57;3.63;;;;;;;19.57;40.19;100384.44;10345082;28;20108;-61
2022/08/29 08:03:29;;;;;;;13.75;4.15;;;;;;;19.68;39.68;100389.63;10345063;28;20053;-60
2022/08/29 08:08:30;;;;;;;11.07;3.92;;;;;;;19.96;39.17;100381.72;10341076;28;20045;-61
2022/08/29 08:13:34;;;;;;;12.10;3.97;;;;;;;20.35;38.76;100377.19;10335991;28;20117;-61
2022/08/29 08:18:37;;;;;;;12.32;4.45;;;;;;;20.56;37.94;100380.47;10342048;28;20128;-61
2022/08/29 08:23:40;;;;;;;13.23;4.25;;;;;;;20.41;38.51;100381.94;10328189;28;20054;-61
2022/08/29 08:28:43;;;;;;;14.02;4.13;;;;;;;20.55;38.07;100381.47;10342520;28;20045;-61
2022/08/29 08:33:46;;;;;;;12.73;3.63;;;;;;;20.37;38.32;100391.16;10342394;28;20058;-61
2022/08/29 08:38:49;;;;;;;10.88;3.78;;;;;;;20.84;37.70;100384.91;10341119;28;20050;-61
2022/08/29 08:43:55;;;;;;;9.95;3.47;;;;;;;21.33;36.50;100370.41;10341836;28;20089;-61
2022/08/29 08:49:00;;;;;;;11.70;4.13;;;;;;;22.26;35.00;100372.63;10342936;28;20049;-61
2022/08/29 08:54:07;;;;;;;11.40;3.70;;;;;;;21.95;35.43;100372.16;10339618;28;20133;-59
2022/08/29 08:59:16;;;;;;;8.07;3.55;;;;;;;22.13;34.83;100362.34;10337836;28;20056;-59
2022/08/29 09:04:52;;;;;;;10.90;3.33;;;;;;;22.79;33.46;100365.31;10342559;28;20152;-59
2022/08/29 09:10:01;;;;;;;12.07;4.05;;;;;;;22.38;34.05;100361.53;10341190;28;20053;-59
2022/08/29 09:15:11;;;;;;;12.77;3.80;;;;;;;22.19;34.13;100364.41;10342484;28;20057;-59
2022/08/29 09:20:21;;;;;;;9.70;3.67;;;;;;;22.23;33.98;100368.44;10339852;28;20457;-60
2022/08/29 09:25:23;;;;;;;11.38;3.60;;;;;;;22.27;34.19;100368.97;10340268;28;20053;-60
2022/08/29 09:30:30;;;;;;;9.48;3.50;;;;;;;22.55;33.73;100370.50;10339963;28;20058;-60
2022/08/29 09:35:45;;;;;;;9.38;3.47;;;;;;;22.67;33.45;100371.88;10340428;28;20053;-60
2022/08/29 09:40:59;;;;;;;9.10;3.13;;;;;;;22.88;32.67;100371.53;10345515;28;20518;-60
2022/08/29 09:46:09;;;;;;;9.80;3.63;;;;;;;23.10;32.46;100371.81;10349940;28;20525;-60
2022/08/29 09:51:18;;;;;;;;;;;;;;;23.24;32.18;100365.84;10348468;28;20054;-60
2022/08/29 09:56:25;;;;;;;11.43;3.17;;;;;;;23.52;31.67;100374.44;10349090;28;19937;-60
2022/08/29 10:01:28;;;;;;;10.18;3.47;;;;;;;23.62;31.60;100361.78;10348680;28;20045;-59
2022/08/29 10:06:34;;;;;;;7.63;3.03;;;;;;;23.39;31.95;100371.41;10346056;28;20054;-59
2022/08/29 10:11:59;;;;;;;8.68;3.42;;;;;;;23.63;31.02;100360.78;10347239;28;20096;-59
2022/08/29 10:22:46;;;;;;;7.82;2.83;;;;;;;23.93;30.49;100357.47;10346986;28;20157;-59
2022/08/29 10:27:59;;;;;;;8.13;2.85;;;;;;;23.77;30.34;100352.13;10345859;28;20068;-59
2022/08/29 10:33:27;;;;;;;11.15;3.45;;;;;;;23.98;30.38;100335.59;10344337;28;20046;-59
2022/08/29 10:38:51;;;;;;;8.48;3.13;;;;;;;24.03;30.53;100328.75;10340843;28;20140;-59
2022/08/29 10:44:01;;;;;;;10.98;3.15;;;;;;;24.19;29.96;100327.91;10348573;28;20093;-59
2022/08/29 10:49:39;;;;;;;10.30;2.97;;;;;;;23.69;30.15;100328.09;10346907;28;20050;-59
2022/08/29 10:54:51;;;;;;;8.65;3.05;;;;;;;23.68;30.74;100323.72;10343035;28;20057;-59
2022/08/29 11:00:21;;;;;;;8.98;2.83;;;;;;;23.95;30.03;100312.72;10345271;28;20041;-59
2022/08/29 11:05:30;;;;;;;11.07;2.95;;;;;;;23.90;30.36;100307.03;10344782;28;20049;-59
2022/08/29 11:10:39;;;;;;;8.30;3.10;;;;;;;24.11;30.25;100298.53;10347801;28;20060;-59
2022/08/29 11:15:43;;;;;;;8.43;2.77;;;;;;;24.06;30.31;100290.16;10347012;28;20593;-59
2022/08/29 11:20:55;;;;;;;7.80;2.83;;;;;;;23.87;30.13;100291.34;10342612;28;20521;-59
2022/08/29 11:26:04;;;;;;;8.77;2.90;;;;;;;23.91;29.98;100282.00;10343255;28;20132;-59
2022/08/29 11:31:30;;;;;;;9.73;2.80;;;;;;;23.82;29.92;100290.19;10342702;28;20490;-59
2022/08/29 11:36:50;;;;;;;9.27;2.75;;;;;;;23.73;29.89;100273.34;10344573;28;20502;-59
2022/08/29 11:41:56;;;;;;;8.60;3.00;;;;;;;24.21;29.39;100267.94;10340806;28;20112;-59
2022/08/29 11:46:59;;;;;;;6.40;2.50;;;;;;;24.27;29.38;100264.59;10340432;28;20061;-59
2022/08/29 11:52:07;;;;;;;8.88;2.60;;;;;;;24.72;28.88;100260.44;10329474;28;20141;-59
2022/08/29 11:57:09;;;;;;;9.40;2.70;;;;;;;24.71;29.26;100258.75;10343101;28;20065;-59
2022/08/29 12:02:26;;;;;;;8.60;2.90;;;;;;;25.19;28.22;100247.78;10341413;28;20145;-59
2022/08/29 12:07:43;;;;;;;9.75;2.85;;;;;;;24.98;28.05;100244.91;10344999;28;20108;-58
2022/08/29 12:12:47;;;;;;;11.85;2.80;;;;;;;25.31;28.42;100227.63;10339143;28;20652;-59
2022/08/29 12:18:15;;;;;;;10.38;2.80;;;;;;;24.98;27.89;100226.16;10342854;28;20088;-59
2022/08/29 12:23:30;;;;;;;7.90;2.72;;;;;;;24.84;28.60;100222.41;10340622;28;20057;-60
2022/08/29 12:29:00;;;;;;;7.30;2.80;;;;;;;25.13;28.24;100213.69;10317822;28;20050;-59
2022/08/29 12:34:14;;;;;;;6.70;2.67;;;;;;;25.33;27.86;100209.53;10316660;28;20049;-60
2022/08/29 12:39:50;;;;;;;9.57;2.97;;;;;;;25.20;28.09;100205.81;10335224;28;20054;-59
2022/08/29 12:45:15;;;;;;;10.05;3.15;;;;;;;25.21;27.89;100197.59;10339726;28;20052;-59
2022/08/29 12:50:23;;;;;;;7.00;3.00;;;;;;;25.13;28.25;100181.59;10340156;28;20084;-59
2022/08/29 12:55:32;;;;;;;10.05;3.17;;;;;;;25.30;28.22;100174.25;10341143;28;20406;-59
2022/08/29 13:00:35;;;;;;;9.75;3.30;;;;;;;25.50;28.03;100164.75;10340084;28;20137;-59
2022/08/29 13:05:39;;;;;;;7.97;2.83;;;;;;;25.42;28.13;100160.31;10332973;28;20046;-59
2022/08/29 13:10:57;;;;;;;9.70;2.70;;;;;;;25.55;27.54;100160.50;10339281;28;20228;-59
2022/08/29 13:16:00;;;;;;;10.43;2.95;;;;;;;25.79;27.82;100154.88;10340719;28;20050;-59
2022/08/29 13:21:05;;;;;;;12.50;3.03;;;;;;;26.15;27.22;100154.19;10337347;28;20060;-59
2022/08/29 13:26:10;;;;;;;7.55;3.00;;;;;;;26.45;26.86;100147.75;10339832;28;20054;-59
2022/08/29 13:31:14;;;;;;;9.60;2.72;;;;;;;26.40;26.75;100147.50;10339690;28;20052;-59
2022/08/29 13:36:26;;;;;;;8.77;2.95;;;;;;;26.36;26.92;100152.41;10336259;28;20136;-59
2022/08/29 13:41:28;;;;;;;9.38;3.13;;;;;;;26.34;27.11;100149.09;10335824;28;20052;-60
2022/08/29 13:46:29;;;;;;;7.05;2.83;;;;;;;26.49;26.91;100144.50;10341816;28;20134;-59
2022/08/29 13:51:32;;;;;;;13.27;3.00;;;;;;;26.58;27.20;100138.06;10337980;28;20556;-59
2022/08/29 13:56:34;;;;;;;8.35;2.92;;;;;;;26.64;26.63;100133.78;10339700;28;20510;-59
2022/08/29 14:01:40;;;;;;;9.43;3.00;;;;;;;26.64;26.76;100125.72;10338914;28;20046;-59
2022/08/29 14:07:02;;;;;;;10.00;2.90;;;;;;;26.57;26.55;100132.84;10337054;28;20094;-59
2022/08/29 14:12:04;;;;;;;6.93;2.55;;;;;;;26.60;27.18;100132.50;10339528;28;20046;-59
2022/08/29 14:17:06;;;;;;;10.02;3.17;;;;;;;26.78;26.75;100119.47;10340650;28;20502;-59
2022/08/29 14:22:09;;;;;;;10.00;3.20;;;;;;;26.77;26.68;100123.19;10337577;28;20135;-59
2022/08/29 14:27:11;;;;;;;6.15;2.92;;;;;;;26.78;26.58;100119.47;10342927;28;20056;-59
2022/08/29 14:32:13;;;;;;;8.10;3.15;;;;;;;26.96;26.45;100110.97;10340955;28;20442;-59
2022/08/29 14:37:15;;;;;;;11.88;3.60;;;;;;;27.00;26.38;100109.53;10347940;28;20069;-59
2022/08/29 14:42:17;;;;;;;8.63;3.30;;;;;;;27.10;26.41;100113.56;10342362;28;20053;-59
2022/08/29 14:47:19;;;;;;;15.65;3.78;;;;;;;27.24;26.50;100099.25;10347125;28;20058;-59
2022/08/29 14:52:21;;;;;;;10.00;3.20;;;;;;;27.25;26.14;100092.88;10344863;28;20058;-59
2022/08/29 14:57:22;;;;;;;6.97;2.53;;;;;;;27.04;26.04;100094.72;10346333;28;20866;-59
2022/08/29 15:02:24;;;;;;;9.00;3.15;;;;;;;26.91;26.73;100094.63;10345069;28;20180;-59
2022/08/29 15:07:26;;;;;;;5.65;2.95;;;;;;;26.86;26.31;100095.19;10345889;28;20046;-59
2022/08/29 15:12:28;;;;;;;11.32;2.58;;;;;;;27.12;25.72;100090.03;10345729;28;20824;-59
2022/08/29 15:17:30;;;;;;;7.28;3.00;;;;;;;27.49;25.36;100086.22;10343103;28;20449;-59
2022/08/29 15:22:32;;;;;;;7.28;2.83;;;;;;;27.75;24.94;100081.03;10343701;28;20058;-59
2022/08/29 15:27:34;;;;;;;10.43;2.53;;;;;;;27.73;24.73;100071.53;10343848;28;20064;-59
2022/08/29 15:32:37;;;;;;;6.32;2.22;;;;;;;27.82;24.22;100076.53;10343817;28;20049;-59
2022/08/29 15:37:39;;;;;;;6.50;2.30;;;;;;;27.71;24.49;100077.03;10344434;28;20049;-59
2022/08/29 15:42:41;;;;;;;7.13;2.33;;;;;;;27.43;24.15;100065.50;10332911;28;20054;-59
2022/08/29 15:47:43;;;;;;;5.60;2.50;;;;;;;27.41;24.32;100064.88;10338220;28;20049;-60
2022/08/29 15:52:47;;;;;;;7.22;2.30;;;;;;;27.39;25.01;100067.78;10338704;28;21062;-59
2022/08/29 15:57:49;;;;;;;7.80;2.40;;;;;;;27.55;25.00;100065.78;10339585;28;20520;-60
2022/08/29 16:02:53;;;;;;;5.82;2.50;;;;;;;27.47;25.39;100061.41;10343006;28;20075;-60
2022/08/29 16:07:55;;;;;;;8.35;2.13;;;;;;;27.23;25.42;100067.22;10344761;28;20445;-60
2022/08/29 16:12:57;;;;;;;7.97;2.58;;;;;;;27.00;25.14;100061.22;10344294;28;20075;-60
2022/08/29 16:18:00;;;;;;;4.20;2.20;;;;;;;26.95;25.31;100061.00;10343339;28;20413;-59
2022/08/29 16:23:03;;;;;;;7.32;2.65;;;;;;;27.08;25.13;100051.19;10343109;28;20046;-59
2022/08/29 16:28:04;;;;;;;6.78;2.17;;;;;;;27.03;25.76;100053.63;10345184;28;20057;-59
2022/08/29 16:33:06;;;;;;;7.50;2.53;;;;;;;26.97;25.55;100050.91;10342528;28;20164;-59
2022/08/29 16:38:10;;;;;;;7.32;2.35;;;;;;;26.85;24.81;100049.75;10343662;28;20049;-60
2022/08/29 16:43:12;;;;;;;5.65;2.28;;;;;;;26.77;25.01;100053.41;10341348;28;20103;-60
2022/08/29 16:48:13;;;;;;;7.68;2.40;;;;;;;26.91;25.04;100051.66;10335970;28;20513;-60
2022/08/29 16:53:18;;;;;;;6.65;2.20;;;;;;;26.87;24.97;100043.19;10344627;28;20050;-59
2022/08/29 17:03:41;;;;;;;6.03;2.58;;;;;;;26.91;25.16;100043.63;10343532;28;20049;-59
2022/08/29 17:18:46;;;;;;;4.50;2.25;;;;;;;26.25;26.32;100039.44;10343880;28;20870;-60
2022/08/29 17:23:48;;;;;;;5.85;2.50;;;;;;;26.10;26.49;100028.75;10344453;28;20049;-60
2022/08/29 17:28:50;;;;;;;6.07;2.38;;;;;;;25.92;27.83;100035.53;10342914;28;20057;-59
2022/08/29 17:33:52;;;;;;;4.78;2.30;;;;;;;25.83;27.28;100045.50;10342275;28;20060;-59
2022/08/29 17:38:54;;;;;;;6.15;2.40;;;;;;;25.67;28.13;100053.75;10343890;28;20473;-59
2022/08/29 17:43:55;;;;;;;9.77;2.70;;;;;;;25.39;28.58;100052.69;10336949;28;20060;-59
2022/08/29 17:48:57;;;;;;;5.43;2.50;;;;;;;25.10;28.72;100059.66;10339480;28;20550;-59
2022/08/29 17:53:59;;;;;;;4.20;2.10;;;;;;;24.81;29.13;100061.44;10337968;28;20054;-58
2022/08/29 17:59:04;;;;;;;9.65;2.20;;;;;;;24.45;29.24;100057.66;10342086;28;20072;-60
2022/08/29 18:04:07;;;;;;;7.43;2.38;;;;;;;24.22;30.01;100066.50;10349480;28;20057;-59
2022/08/29 18:09:10;;;;;;;5.88;2.50;;;;;;;24.03;30.10;100066.03;10351512;28;20376;-59
2022/08/29 18:14:12;;;;;;;6.25;2.60;;;;;;;23.77;30.41;100065.50;10350607;28;20421;-59
2022/08/29 18:19:14;;;;;;;10.88;2.80;;;;;;;23.55;30.90;100072.44;10350854;28;20046;-59
2022/08/29 18:24:16;;;;;;;8.63;2.30;;;;;;;23.23;31.24;100083.94;10345224;28;20061;-59
2022/08/29 18:29:18;;;;;;;8.85;2.78;;;;;;;22.99;31.65;100097.31;10348396;28;20060;-59
2022/08/29 18:34:20;;;;;;;6.65;2.53;;;;;;;22.69;32.52;100096.13;10350486;28;20049;-59
2022/08/29 18:39:21;;;;;;;5.85;2.45;;;;;;;22.53;32.70;100096.09;10346856;28;20064;-59
2022/08/29 18:44:23;;;;;;;7.85;2.70;;;;;;;22.47;33.16;100104.75;10350135;28;20058;-59
2022/08/29 18:54:45;;;;;;;7.13;2.55;;;;;;;22.20;33.39;100105.00;10349326;28;20089;-59
2022/08/29 18:59:47;;;;;;;9.23;2.22;;;;;;;22.07;33.55;100115.25;10348906;28;20487;-59
2022/08/29 19:04:49;;;;;;;8.20;2.60;;;;;;;21.96;33.64;100117.34;10348188;28;20060;-59
2022/08/29 19:09:51;;;;;;;8.60;2.58;;;;;;;21.87;33.78;100125.28;10348264;28;20056;-60
2022/08/29 19:14:53;;;;;;;8.48;2.58;;;;;;;21.75;34.29;100125.72;10347706;28;20052;-60
2022/08/29 19:25:17;;;;;;;6.35;3.60;;;;;;;21.51;35.37;100139.72;10356981;28;20056;-60
2022/08/29 19:30:19;;;;;;;8.70;3.20;;;;;;;21.32;35.31;100147.91;10342759;28;20507;-60
2022/08/29 19:35:21;;;;;;;8.32;3.85;;;;;;;21.00;36.05;100147.59;10345205;28;20060;-60
2022/08/29 19:40:23;;;;;;;8.90;3.50;;;;;;;20.93;35.99;100144.72;10344810;28;20204;-60
2022/08/29 19:45:26;;;;;;;7.40;3.60;;;;;;;20.95;35.91;100153.38;10344923;28;20184;-60
2022/08/29 19:50:29;;;;;;;8.82;3.53;;;;;;;20.93;36.08;100157.16;10346144;28;20049;-60
2022/08/29 19:55:31;;;;;;;9.70;2.95;;;;;;;20.86;36.12;100153.47;10344994;28;20062;-60
2022/08/29 20:00:33;;;;;;;6.07;2.95;;;;;;;20.72;36.38;100160.13;10343800;28;20057;-60
2022/08/29 20:05:35;;;;;;;9.70;3.13;;;;;;;20.52;37.01;100150.56;10346660;28;20050;-60
2022/08/29 20:10:37;;;;;;;9.25;3.05;;;;;;;20.26;36.76;100152.28;10342891;28;20058;-60
2022/08/29 20:15:40;;;;;;;7.05;3.10;;;;;;;20.06;36.59;100158.66;10345733;28;20105;-60
2022/08/29 20:20:44;;;;;;;6.72;3.13;;;;;;;19.96;36.84;100161.38;10346332;28;20125;-60
2022/08/29 20:25:46;;;;;;;5.72;2.65;;;;;;;19.99;37.31;100168.22;10344818;28;20053;-60
2022/08/29 20:30:47;;;;;;;6.22;3.00;;;;;;;19.96;37.49;100165.81;10345620;28;20050;-60
2022/08/29 20:41:11;;;;;;;6.80;3.33;;;;;;;19.45;38.81;100172.38;10344331;28;20418;-60
2022/08/29 20:46:13;;;;;;;7.40;3.58;;;;;;;19.45;38.81;100190.09;10344674;28;20418;-60
2022/08/29 20:51:14;;;;;;;8.00;3.55;;;;;;;19.35;38.76;100195.41;10343590;28;20061;-60
2022/08/29 20:56:16;;;;;;;11.73;3.53;;;;;;;19.21;38.78;100197.66;10342077;28;20061;-60
2022/08/29 21:01:19;;;;;;;7.07;2.85;;;;;;;19.09;39.38;100190.81;10343737;28;20046;-60
2022/08/29 21:06:21;;;;;;;7.82;3.10;;;;;;;19.05;39.41;100202.69;10339722;28;20060;-60
2022/08/29 21:11:23;;;;;;;8.90;3.38;;;;;;;18.77;39.89;100204.28;10343108;28;20597;-60
2022/08/29 21:16:25;;;;;;;9.68;2.90;;;;;;;18.64;39.97;100214.31;10343334;28;20566;-60
2022/08/29 21:21:27;;;;;;;6.95;2.58;;;;;;;18.68;40.06;100215.72;10342384;28;20104;-60
2022/08/29 21:26:28;;;;;;;7.45;3.28;;;;;;;18.56;40.28;100216.78;10340081;28;20050;-60
2022/08/29 21:31:30;;;;;;;7.38;3.33;;;;;;;18.53;40.40;100217.06;10343328;28;20100;-60
2022/08/29 21:36:34;;;;;;;7.95;3.17;;;;;;;18.38;40.59;100215.78;10347346;28;20053;-60
2022/08/29 21:41:40;;;;;;;8.93;2.75;;;;;;;18.22;40.95;100228.66;10350934;28;20081;-60
2022/08/29 21:46:44;;;;;;;8.23;2.78;;;;;;;18.16;40.66;100226.50;10350020;28;20045;-60
2022/08/29 21:51:47;;;;;;;9.65;2.90;;;;;;;17.97;41.02;100221.13;10348410;28;20218;-60
2022/08/29 21:56:49;;;;;;;9.77;2.97;;;;;;;17.50;41.49;100230.44;10346280;28;20061;-60
2022/08/29 22:01:53;;;;;;;6.25;2.80;;;;;;;17.48;41.69;100227.94;10351200;28;20060;-60
2022/08/29 22:06:57;;;;;;;5.30;2.72;;;;;;;17.56;42.05;100219.34;10347749;28;20061;-60
2022/08/29 22:11:59;;;;;;;6.53;3.17;;;;;;;17.58;41.84;100226.19;10347121;28;20057;-60
2022/08/29 22:17:01;;;;;;;8.95;3.20;;;;;;;17.48;42.02;100227.94;10349662;28;20119;-60
2022/08/29 22:22:03;;;;;;;7.47;3.30;;;;;;;17.11;42.52;100217.84;10349077;28;20054;-60
2022/08/29 22:27:05;;;;;;;6.07;2.67;;;;;;;17.06;43.11;100231.41;10347599;28;20137;-60
2022/08/29 22:32:08;;;;;;;8.88;3.05;;;;;;;16.98;43.65;100233.84;10346958;28;20050;-60
2022/08/29 22:37:10;;;;;;;10.27;3.10;;;;;;;17.01;43.60;100228.31;10347694;28;20050;-59
2022/08/29 22:42:12;;;;;;;5.45;2.78;;;;;;;17.08;43.41;100223.38;10348573;28;20050;-59
2022/08/29 22:47:15;;;;;;;8.52;3.00;;;;;;;17.07;42.96;100221.69;10347223;28;20058;-60
2022/08/29 22:52:18;;;;;;;9.68;3.40;;;;;;;16.97;43.19;100226.91;10348401;28;20058;-60
2022/08/29 22:57:20;;;;;;;10.32;3.38;;;;;;;16.92;43.22;100227.25;10345715;28;20065;-59
2022/08/29 23:02:22;;;;;;;9.55;3.00;;;;;;;16.98;43.40;100225.91;10347572;28;20049;-60
2022/08/29 23:07:24;;;;;;;7.22;3.13;;;;;;;16.85;43.28;100227.91;10346401;28;20057;-60
2022/08/29 23:12:25;;;;;;;9.18;3.00;;;;;;;16.65;43.55;100223.38;10348044;28;20129;-60
2022/08/29 23:17:27;;;;;;;8.02;2.90;;;;;;;16.83;43.29;100232.47;10344995;28;20490;-60
2022/08/29 23:22:29;;;;;;;7.43;3.00;;;;;;;16.88;43.59;100240.84;10347618;28;20097;-60
2022/08/29 23:27:31;;;;;;;6.55;3.28;;;;;;;16.86;43.94;100234.84;10346322;28;20301;-59
2022/08/29 23:32:33;;;;;;;10.57;3.45;;;;;;;16.72;45.39;100227.19;10346568;28;20060;-60
2022/08/29 23:37:35;;;;;;;8.60;3.65;;;;;;;16.64;45.31;100230.47;10345836;28;20046;-60
2022/08/29 23:42:36;;;;;;;7.40;3.20;;;;;;;16.60;45.25;100230.81;10346114;28;20049;-59
2022/08/29 23:47:38;;;;;;;7.60;3.25;;;;;;;16.60;45.12;100241.38;10345019;28;20060;-60
2022/08/29 23:52:41;;;;;;;6.90;3.05;;;;;;;16.54;45.51;100221.59;10345598;28;20056;-60
2022/08/29 23:57:43;;;;;;;8.32;3.00;;;;;;;16.50;45.66;100208.75;10344321;28;20057;-59
